Terminal Aerodrome Forecast
Issued by NWS Brownsville, TX

Home | Current Version | Previous Version | Text Only | Print | Product List | Glossary On
Versions: 1 2 3 4 5 6 7 8 9 10 11 12
000
FTUS44 KBRO 280500
TAFMFE
TAF
KMFE 280533Z 2806/2906 34008G18KT 6SM -RA BR BKN020 OVC026
     FM280700 33012G18KT P6SM -RA FEW009 OVC015
     FM280900 32010G17KT 5SM -RA BR BKN007 OVC011
      TEMPO 2809/2812 3SM RA BR
     FM281900 34010G15KT P6SM OVC015
     FM282100 30010KT P6SM BKN025=

USA.gov is the U.S. government's official web portal to all federal, state and local government web resources and services.